sensor_id;sensor_type;location;lat;lon;timestamp;P1;durP1;ratioP1;P2;durP2;ratioP2
14849;SDS011;7517;48.400;11.770;2023-11-18T00:00:53;3.17;;;2.97;;
14849;SDS011;7517;48.400;11.770;2023-11-18T00:03:20;3.40;;;3.20;;
14849;SDS011;7517;48.400;11.770;2023-11-18T00:05:48;3.47;;;3.27;;
14849;SDS011;7517;48.400;11.770;2023-11-18T00:08:15;3.60;;;2.83;;
14849;SDS011;7517;48.400;11.770;2023-11-18T00:10:42;3.30;;;3.00;;
14849;SDS011;7517;48.400;11.770;2023-11-18T00:13:09;3.30;;;3.00;;
14849;SDS011;7517;48.400;11.770;2023-11-18T00:15:37;3.57;;;3.27;;
14849;SDS011;7517;48.400;11.770;2023-11-18T00:18:05;3.20;;;3.00;;
14849;SDS011;7517;48.400;11.770;2023-11-18T00:20:32;3.80;;;3.20;;
14849;SDS011;7517;48.400;11.770;2023-11-18T00:23:00;2.47;;;2.27;;
14849;SDS011;7517;48.400;11.770;2023-11-18T00:25:29;4.60;;;3.10;;
14849;SDS011;7517;48.400;11.770;2023-11-18T00:28:01;2.90;;;2.70;;
14849;SDS011;7517;48.400;11.770;2023-11-18T00:30:29;3.13;;;2.93;;
14849;SDS011;7517;48.400;11.770;2023-11-18T00:32:56;3.00;;;2.80;;
14849;SDS011;7517;48.400;11.770;2023-11-18T00:35:24;3.07;;;2.87;;
14849;SDS011;7517;48.400;11.770;2023-11-18T00:37:52;2.77;;;2.57;;
14849;SDS011;7517;48.400;11.770;2023-11-18T00:40:20;2.73;;;2.53;;
14849;SDS011;7517;48.400;11.770;2023-11-18T00:42:47;3.00;;;2.80;;
14849;SDS011;7517;48.400;11.770;2023-11-18T00:45:15;3.47;;;2.30;;
14849;SDS011;7517;48.400;11.770;2023-11-18T00:47:43;2.97;;;2.77;;
14849;SDS011;7517;48.400;11.770;2023-11-18T00:50:10;2.97;;;2.77;;
14849;SDS011;7517;48.400;11.770;2023-11-18T00:52:40;2.70;;;2.50;;
14849;SDS011;7517;48.400;11.770;2023-11-18T00:55:08;2.43;;;2.30;;
14849;SDS011;7517;48.400;11.770;2023-11-18T00:57:36;2.60;;;2.40;;
14849;SDS011;7517;48.400;11.770;2023-11-18T01:00:05;2.50;;;2.30;;
14849;SDS011;7517;48.400;11.770;2023-11-18T01:02:39;2.27;;;2.17;;
14849;SDS011;7517;48.400;11.770;2023-11-18T01:05:06;2.30;;;2.13;;
14849;SDS011;7517;48.400;11.770;2023-11-18T01:07:36;2.10;;;2.00;;
14849;SDS011;7517;48.400;11.770;2023-11-18T01:10:05;2.07;;;1.97;;
14849;SDS011;7517;48.400;11.770;2023-11-18T01:12:35;3.23;;;2.20;;
14849;SDS011;7517;48.400;11.770;2023-11-18T01:15:02;2.80;;;2.50;;
14849;SDS011;7517;48.400;11.770;2023-11-18T01:17:32;2.00;;;1.90;;
14849;SDS011;7517;48.400;11.770;2023-11-18T01:19:59;2.70;;;2.50;;
14849;SDS011;7517;48.400;11.770;2023-11-18T01:22:35;2.63;;;2.43;;
14849;SDS011;7517;48.400;11.770;2023-11-18T01:25:02;2.10;;;2.00;;
14849;SDS011;7517;48.400;11.770;2023-11-18T01:27:34;3.77;;;2.30;;
14849;SDS011;7517;48.400;11.770;2023-11-18T01:30:01;2.20;;;2.10;;
14849;SDS011;7517;48.400;11.770;2023-11-18T01:32:29;2.53;;;2.33;;
14849;SDS011;7517;48.400;11.770;2023-11-18T01:34:57;2.33;;;2.13;;
14849;SDS011;7517;48.400;11.770;2023-11-18T01:37:24;2.60;;;2.40;;
14849;SDS011;7517;48.400;11.770;2023-11-18T01:39:51;2.70;;;2.50;;
14849;SDS011;7517;48.400;11.770;2023-11-18T01:42:20;2.53;;;2.33;;
14849;SDS011;7517;48.400;11.770;2023-11-18T01:44:48;2.50;;;2.30;;
14849;SDS011;7517;48.400;11.770;2023-11-18T01:47:15;2.47;;;2.37;;
14849;SDS011;7517;48.400;11.770;2023-11-18T01:49:42;2.60;;;2.40;;
14849;SDS011;7517;48.400;11.770;2023-11-18T01:52:10;2.43;;;2.23;;
14849;SDS011;7517;48.400;11.770;2023-11-18T01:54:38;2.73;;;2.53;;
14849;SDS011;7517;48.400;11.770;2023-11-18T01:57:09;2.37;;;2.23;;
14849;SDS011;7517;48.400;11.770;2023-11-18T01:59:40;2.60;;;2.40;;
14849;SDS011;7517;48.400;11.770;2023-11-18T02:02:08;2.70;;;2.50;;
14849;SDS011;7517;48.400;11.770;2023-11-18T02:04:36;2.50;;;2.30;;
14849;SDS011;7517;48.400;11.770;2023-11-18T02:07:03;2.60;;;2.40;;
14849;SDS011;7517;48.400;11.770;2023-11-18T02:09:34;2.87;;;2.60;;
14849;SDS011;7517;48.400;11.770;2023-11-18T02:12:05;2.90;;;2.70;;
14849;SDS011;7517;48.400;11.770;2023-11-18T02:14:47;2.70;;;2.50;;
14849;SDS011;7517;48.400;11.770;2023-11-18T02:17:20;2.73;;;2.53;;
14849;SDS011;7517;48.400;11.770;2023-11-18T02:19:50;2.70;;;2.50;;
14849;SDS011;7517;48.400;11.770;2023-11-18T02:22:18;2.50;;;2.30;;
14849;SDS011;7517;48.400;11.770;2023-11-18T02:24:47;2.63;;;2.47;;
14849;SDS011;7517;48.400;11.770;2023-11-18T02:27:16;3.10;;;2.90;;
14849;SDS011;7517;48.400;11.770;2023-11-18T02:29:47;8.33;;;2.70;;
14849;SDS011;7517;48.400;11.770;2023-11-18T02:32:18;3.30;;;2.40;;
14849;SDS011;7517;48.400;11.770;2023-11-18T02:34:55;2.80;;;2.60;;
14849;SDS011;7517;48.400;11.770;2023-11-18T02:37:35;2.40;;;2.30;;
14849;SDS011;7517;48.400;11.770;2023-11-18T02:40:07;2.50;;;2.30;;
14849;SDS011;7517;48.400;11.770;2023-11-18T02:42:44;2.60;;;2.40;;
14849;SDS011;7517;48.400;11.770;2023-11-18T02:45:20;2.67;;;2.47;;
14849;SDS011;7517;48.400;11.770;2023-11-18T02:47:49;2.90;;;2.70;;
14849;SDS011;7517;48.400;11.770;2023-11-18T02:50:22;2.80;;;2.60;;
14849;SDS011;7517;48.400;11.770;2023-11-18T02:52:50;3.00;;;2.80;;
14849;SDS011;7517;48.400;11.770;2023-11-18T02:55:17;2.93;;;2.63;;
14849;SDS011;7517;48.400;11.770;2023-11-18T02:57:47;2.60;;;2.40;;
14849;SDS011;7517;48.400;11.770;2023-11-18T03:00:18;3.10;;;2.83;;
14849;SDS011;7517;48.400;11.770;2023-11-18T03:02:47;2.70;;;2.50;;
14849;SDS011;7517;48.400;11.770;2023-11-18T03:05:15;2.30;;;2.20;;
14849;SDS011;7517;48.400;11.770;2023-11-18T03:07:43;2.90;;;2.70;;
14849;SDS011;7517;48.400;11.770;2023-11-18T03:10:23;2.50;;;2.30;;
14849;SDS011;7517;48.400;11.770;2023-11-18T03:12:53;3.00;;;2.80;;
14849;SDS011;7517;48.400;11.770;2023-11-18T03:15:22;2.80;;;2.60;;
14849;SDS011;7517;48.400;11.770;2023-11-18T03:17:48;2.30;;;2.20;;
14849;SDS011;7517;48.400;11.770;2023-11-18T03:20:16;2.17;;;1.97;;
14849;SDS011;7517;48.400;11.770;2023-11-18T03:22:46;2.77;;;2.57;;
14849;SDS011;7517;48.400;11.770;2023-11-18T03:25:15;2.73;;;2.47;;
14849;SDS011;7517;48.400;11.770;2023-11-18T03:27:44;2.43;;;2.23;;
14849;SDS011;7517;48.400;11.770;2023-11-18T03:30:13;2.70;;;2.50;;
14849;SDS011;7517;48.400;11.770;2023-11-18T03:32:42;2.43;;;2.33;;
14849;SDS011;7517;48.400;11.770;2023-11-18T03:35:09;2.53;;;2.33;;
14849;SDS011;7517;48.400;11.770;2023-11-18T03:37:37;2.50;;;2.30;;
14849;SDS011;7517;48.400;11.770;2023-11-18T03:40:07;2.53;;;2.33;;
14849;SDS011;7517;48.400;11.770;2023-11-18T03:42:37;2.43;;;2.23;;
14849;SDS011;7517;48.400;11.770;2023-11-18T03:45:07;2.33;;;2.23;;
14849;SDS011;7517;48.400;11.770;2023-11-18T03:47:36;2.90;;;2.70;;
14849;SDS011;7517;48.400;11.770;2023-11-18T03:50:05;2.90;;;2.63;;
14849;SDS011;7517;48.400;11.770;2023-11-18T03:52:33;3.03;;;2.83;;
14849;SDS011;7517;48.400;11.770;2023-11-18T03:55:03;2.90;;;2.70;;
14849;SDS011;7517;48.400;11.770;2023-11-18T03:57:30;2.40;;;2.23;;
14849;SDS011;7517;48.400;11.770;2023-11-18T03:59:57;2.27;;;2.17;;
14849;SDS011;7517;48.400;11.770;2023-11-18T04:02:24;2.53;;;2.33;;
14849;SDS011;7517;48.400;11.770;2023-11-18T04:04:53;2.50;;;2.30;;
14849;SDS011;7517;48.400;11.770;2023-11-18T04:07:21;2.80;;;2.60;;
14849;SDS011;7517;48.400;11.770;2023-11-18T04:09:48;2.53;;;2.33;;
14849;SDS011;7517;48.400;11.770;2023-11-18T04:12:19;2.30;;;2.20;;
14849;SDS011;7517;48.400;11.770;2023-11-18T04:14:46;2.80;;;2.60;;
14849;SDS011;7517;48.400;11.770;2023-11-18T04:17:13;2.47;;;2.37;;
14849;SDS011;7517;48.400;11.770;2023-11-18T04:19:40;2.97;;;2.77;;
14849;SDS011;7517;48.400;11.770;2023-11-18T04:22:09;2.90;;;2.37;;
14849;SDS011;7517;48.400;11.770;2023-11-18T04:24:36;2.67;;;2.47;;
14849;SDS011;7517;48.400;11.770;2023-11-18T04:27:03;2.93;;;2.73;;
14849;SDS011;7517;48.400;11.770;2023-11-18T04:29:30;2.77;;;2.40;;
14849;SDS011;7517;48.400;11.770;2023-11-18T04:31:58;2.30;;;2.20;;
14849;SDS011;7517;48.400;11.770;2023-11-18T04:34:27;2.40;;;2.30;;
14849;SDS011;7517;48.400;11.770;2023-11-18T04:36:54;2.60;;;2.40;;
14849;SDS011;7517;48.400;11.770;2023-11-18T04:39:22;2.63;;;2.43;;
14849;SDS011;7517;48.400;11.770;2023-11-18T04:41:50;2.77;;;2.57;;
14849;SDS011;7517;48.400;11.770;2023-11-18T04:44:17;2.70;;;2.50;;
14849;SDS011;7517;48.400;11.770;2023-11-18T04:46:44;2.60;;;2.40;;
14849;SDS011;7517;48.400;11.770;2023-11-18T04:49:11;2.50;;;2.30;;
14849;SDS011;7517;48.400;11.770;2023-11-18T04:51:39;2.90;;;2.70;;
14849;SDS011;7517;48.400;11.770;2023-11-18T04:54:06;2.80;;;2.60;;
14849;SDS011;7517;48.400;11.770;2023-11-18T04:56:36;2.33;;;2.23;;
14849;SDS011;7517;48.400;11.770;2023-11-18T04:59:04;2.63;;;2.43;;
14849;SDS011;7517;48.400;11.770;2023-11-18T05:01:31;2.73;;;2.53;;
14849;SDS011;7517;48.400;11.770;2023-11-18T05:03:58;2.80;;;2.60;;
14849;SDS011;7517;48.400;11.770;2023-11-18T05:06:26;2.33;;;2.13;;
14849;SDS011;7517;48.400;11.770;2023-11-18T05:08:53;2.93;;;2.73;;
14849;SDS011;7517;48.400;11.770;2023-11-18T05:11:20;2.83;;;2.63;;
14849;SDS011;7517;48.400;11.770;2023-11-18T05:13:49;4.20;;;3.80;;
14849;SDS011;7517;48.400;11.770;2023-11-18T05:16:16;3.47;;;3.23;;
14849;SDS011;7517;48.400;11.770;2023-11-18T05:18:44;3.50;;;3.20;;
14849;SDS011;7517;48.400;11.770;2023-11-18T05:21:11;2.50;;;2.40;;
14849;SDS011;7517;48.400;11.770;2023-11-18T05:23:38;3.43;;;3.13;;
14849;SDS011;7517;48.400;11.770;2023-11-18T05:26:05;2.80;;;2.60;;
14849;SDS011;7517;48.400;11.770;2023-11-18T05:28:32;3.20;;;2.93;;
14849;SDS011;7517;48.400;11.770;2023-11-18T05:31:01;3.30;;;3.10;;
14849;SDS011;7517;48.400;11.770;2023-11-18T05:33:30;3.03;;;2.83;;
14849;SDS011;7517;48.400;11.770;2023-11-18T05:35:59;3.03;;;2.77;;
14849;SDS011;7517;48.400;11.770;2023-11-18T05:38:30;3.07;;;2.87;;
14849;SDS011;7517;48.400;11.770;2023-11-18T05:41:00;3.57;;;3.27;;
14849;SDS011;7517;48.400;11.770;2023-11-18T05:43:29;3.30;;;3.10;;
14849;SDS011;7517;48.400;11.770;2023-11-18T05:46:06;4.17;;;3.47;;
14849;SDS011;7517;48.400;11.770;2023-11-18T05:48:45;2.97;;;2.77;;
14849;SDS011;7517;48.400;11.770;2023-11-18T05:51:13;3.70;;;3.40;;
14849;SDS011;7517;48.400;11.770;2023-11-18T05:53:40;3.30;;;3.10;;
14849;SDS011;7517;48.400;11.770;2023-11-18T05:56:10;3.53;;;3.27;;
14849;SDS011;7517;48.400;11.770;2023-11-18T05:58:38;2.70;;;2.57;;
14849;SDS011;7517;48.400;11.770;2023-11-18T06:01:06;3.60;;;3.37;;
14849;SDS011;7517;48.400;11.770;2023-11-18T06:03:34;3.03;;;2.83;;
14849;SDS011;7517;48.400;11.770;2023-11-18T06:06:04;3.40;;;3.20;;
14849;SDS011;7517;48.400;11.770;2023-11-18T06:08:32;3.07;;;2.77;;
14849;SDS011;7517;48.400;11.770;2023-11-18T06:11:02;3.23;;;3.00;;
14849;SDS011;7517;48.400;11.770;2023-11-18T06:13:38;2.90;;;2.70;;
14849;SDS011;7517;48.400;11.770;2023-11-18T06:16:13;2.80;;;2.60;;
14849;SDS011;7517;48.400;11.770;2023-11-18T06:18:42;2.80;;;2.60;;
14849;SDS011;7517;48.400;11.770;2023-11-18T06:21:13;3.60;;;3.30;;
14849;SDS011;7517;48.400;11.770;2023-11-18T06:23:41;3.60;;;3.30;;
14849;SDS011;7517;48.400;11.770;2023-11-18T06:26:10;3.47;;;3.27;;
14849;SDS011;7517;48.400;11.770;2023-11-18T06:28:38;4.17;;;3.30;;
14849;SDS011;7517;48.400;11.770;2023-11-18T06:31:08;3.40;;;3.10;;
14849;SDS011;7517;48.400;11.770;2023-11-18T06:33:39;3.20;;;2.90;;
14849;SDS011;7517;48.400;11.770;2023-11-18T06:36:08;3.60;;;3.30;;
14849;SDS011;7517;48.400;11.770;2023-11-18T06:38:37;3.10;;;2.90;;
14849;SDS011;7517;48.400;11.770;2023-11-18T06:41:05;3.43;;;3.23;;
14849;SDS011;7517;48.400;11.770;2023-11-18T06:43:35;3.17;;;2.87;;
14849;SDS011;7517;48.400;11.770;2023-11-18T06:46:16;3.20;;;3.00;;
14849;SDS011;7517;48.400;11.770;2023-11-18T06:48:48;2.90;;;2.70;;
14849;SDS011;7517;48.400;11.770;2023-11-18T06:51:19;2.90;;;2.60;;
14849;SDS011;7517;48.400;11.770;2023-11-18T06:53:49;3.03;;;2.70;;
14849;SDS011;7517;48.400;11.770;2023-11-18T06:56:16;2.93;;;2.70;;
14849;SDS011;7517;48.400;11.770;2023-11-18T06:58:44;3.07;;;2.87;;
14849;SDS011;7517;48.400;11.770;2023-11-18T07:01:12;2.97;;;2.77;;
14849;SDS011;7517;48.400;11.770;2023-11-18T07:03:40;3.27;;;2.97;;
14849;SDS011;7517;48.400;11.770;2023-11-18T07:06:09;3.27;;;2.97;;
14849;SDS011;7517;48.400;11.770;2023-11-18T07:08:39;3.47;;;3.27;;
14849;SDS011;7517;48.400;11.770;2023-11-18T07:11:06;3.17;;;2.97;;
14849;SDS011;7517;48.400;11.770;2023-11-18T07:13:34;3.20;;;3.00;;
14849;SDS011;7517;48.400;11.770;2023-11-18T07:16:02;3.37;;;3.17;;
14849;SDS011;7517;48.400;11.770;2023-11-18T07:18:30;3.60;;;3.40;;
14849;SDS011;7517;48.400;11.770;2023-11-18T07:20:58;3.33;;;3.13;;
14849;SDS011;7517;48.400;11.770;2023-11-18T07:23:27;3.80;;;3.30;;
14849;SDS011;7517;48.400;11.770;2023-11-18T07:25:54;3.23;;;3.03;;
14849;SDS011;7517;48.400;11.770;2023-11-18T07:28:27;3.17;;;2.97;;
14849;SDS011;7517;48.400;11.770;2023-11-18T07:30:55;3.43;;;3.13;;
14849;SDS011;7517;48.400;11.770;2023-11-18T07:33:24;3.03;;;2.83;;
14849;SDS011;7517;48.400;11.770;2023-11-18T07:36:13;3.10;;;2.90;;
14849;SDS011;7517;48.400;11.770;2023-11-18T07:38:49;3.20;;;2.90;;
14849;SDS011;7517;48.400;11.770;2023-11-18T07:41:21;2.93;;;2.73;;
14849;SDS011;7517;48.400;11.770;2023-11-18T07:43:50;3.20;;;3.00;;
14849;SDS011;7517;48.400;11.770;2023-11-18T07:47:02;3.90;;;3.60;;
14849;SDS011;7517;48.400;11.770;2023-11-18T07:49:39;4.10;;;3.80;;
14849;SDS011;7517;48.400;11.770;2023-11-18T07:52:07;4.37;;;4.03;;
14849;SDS011;7517;48.400;11.770;2023-11-18T07:58:21;3.27;;;2.97;;
14849;SDS011;7517;48.400;11.770;2023-11-18T08:01:36;2.83;;;2.63;;
14849;SDS011;7517;48.400;11.770;2023-11-18T08:04:42;3.13;;;2.93;;
14849;SDS011;7517;48.400;11.770;2023-11-18T08:07:10;3.37;;;3.07;;
14849;SDS011;7517;48.400;11.770;2023-11-18T08:09:43;3.10;;;2.90;;
14849;SDS011;7517;48.400;11.770;2023-11-18T08:12:29;3.00;;;2.80;;
14849;SDS011;7517;48.400;11.770;2023-11-18T08:15:05;2.80;;;2.60;;
14849;SDS011;7517;48.400;11.770;2023-11-18T08:17:37;3.10;;;2.90;;
14849;SDS011;7517;48.400;11.770;2023-11-18T08:20:14;3.27;;;2.97;;
14849;SDS011;7517;48.400;11.770;2023-11-18T08:22:50;2.90;;;2.70;;
14849;SDS011;7517;48.400;11.770;2023-11-18T08:25:32;3.03;;;2.83;;
14849;SDS011;7517;48.400;11.770;2023-11-18T08:28:07;2.90;;;2.70;;
14849;SDS011;7517;48.400;11.770;2023-11-18T08:30:39;2.43;;;2.30;;
14849;SDS011;7517;48.400;11.770;2023-11-18T08:33:06;2.87;;;2.67;;
14849;SDS011;7517;48.400;11.770;2023-11-18T08:35:34;2.63;;;2.50;;
14849;SDS011;7517;48.400;11.770;2023-11-18T08:38:01;2.77;;;2.57;;
14849;SDS011;7517;48.400;11.770;2023-11-18T08:40:33;2.47;;;2.27;;
14849;SDS011;7517;48.400;11.770;2023-11-18T08:43:03;2.90;;;2.70;;
14849;SDS011;7517;48.400;11.770;2023-11-18T08:45:32;3.30;;;3.10;;
14849;SDS011;7517;48.400;11.770;2023-11-18T08:48:02;2.77;;;2.57;;
14849;SDS011;7517;48.400;11.770;2023-11-18T08:50:33;2.77;;;2.57;;
14849;SDS011;7517;48.400;11.770;2023-11-18T08:53:01;2.70;;;2.50;;
14849;SDS011;7517;48.400;11.770;2023-11-18T08:55:32;2.90;;;2.70;;
14849;SDS011;7517;48.400;11.770;2023-11-18T08:58:05;3.10;;;2.90;;
14849;SDS011;7517;48.400;11.770;2023-11-18T09:00:48;2.47;;;2.27;;
14849;SDS011;7517;48.400;11.770;2023-11-18T09:03:19;2.50;;;2.30;;
14849;SDS011;7517;48.400;11.770;2023-11-18T09:05:50;2.90;;;2.70;;
14849;SDS011;7517;48.400;11.770;2023-11-18T09:08:24;3.43;;;3.23;;
14849;SDS011;7517;48.400;11.770;2023-11-18T09:10:56;3.10;;;2.90;;
14849;SDS011;7517;48.400;11.770;2023-11-18T09:13:23;3.13;;;2.93;;
14849;SDS011;7517;48.400;11.770;2023-11-18T09:15:54;2.40;;;2.20;;
14849;SDS011;7517;48.400;11.770;2023-11-18T09:18:22;2.67;;;2.47;;
14849;SDS011;7517;48.400;11.770;2023-11-18T09:20:51;2.27;;;2.10;;
14849;SDS011;7517;48.400;11.770;2023-11-18T09:23:20;2.20;;;2.10;;
14849;SDS011;7517;48.400;11.770;2023-11-18T09:25:50;2.27;;;2.07;;
14849;SDS011;7517;48.400;11.770;2023-11-18T09:28:20;2.10;;;2.00;;
14849;SDS011;7517;48.400;11.770;2023-11-18T09:30:49;2.13;;;2.03;;
14849;SDS011;7517;48.400;11.770;2023-11-18T09:33:23;1.90;;;1.80;;
14849;SDS011;7517;48.400;11.770;2023-11-18T09:35:54;2.07;;;1.97;;
14849;SDS011;7517;48.400;11.770;2023-11-18T09:38:27;2.30;;;2.20;;
14849;SDS011;7517;48.400;11.770;2023-11-18T09:40:55;1.70;;;1.60;;
14849;SDS011;7517;48.400;11.770;2023-11-18T09:43:28;2.40;;;2.20;;
14849;SDS011;7517;48.400;11.770;2023-11-18T09:46:03;3.60;;;2.60;;
14849;SDS011;7517;48.400;11.770;2023-11-18T09:48:38;3.10;;;2.80;;
14849;SDS011;7517;48.400;11.770;2023-11-18T09:51:13;2.43;;;2.03;;
14849;SDS011;7517;48.400;11.770;2023-11-18T09:53:48;2.07;;;1.97;;
14849;SDS011;7517;48.400;11.770;2023-11-18T09:56:28;2.10;;;2.00;;
14849;SDS011;7517;48.400;11.770;2023-11-18T09:59:06;1.63;;;1.53;;
14849;SDS011;7517;48.400;11.770;2023-11-18T10:01:46;1.60;;;1.50;;
14849;SDS011;7517;48.400;11.770;2023-11-18T10:04:22;2.00;;;1.90;;
14849;SDS011;7517;48.400;11.770;2023-11-18T10:06:52;1.67;;;1.57;;
14849;SDS011;7517;48.400;11.770;2023-11-18T10:09:21;1.60;;;1.50;;
14849;SDS011;7517;48.400;11.770;2023-11-18T10:12:02;1.50;;;1.40;;
14849;SDS011;7517;48.400;11.770;2023-11-18T10:14:35;1.43;;;1.33;;
14849;SDS011;7517;48.400;11.770;2023-11-18T10:17:08;1.50;;;1.40;;
14849;SDS011;7517;48.400;11.770;2023-11-18T10:22:25;1.40;;;1.30;;
14849;SDS011;7517;48.400;11.770;2023-11-18T10:24:54;1.63;;;1.53;;
14849;SDS011;7517;48.400;11.770;2023-11-18T10:27:23;2.70;;;2.50;;
14849;SDS011;7517;48.400;11.770;2023-11-18T10:29:58;2.23;;;1.70;;
14849;SDS011;7517;48.400;11.770;2023-11-18T10:32:29;1.77;;;1.67;;
14849;SDS011;7517;48.400;11.770;2023-11-18T10:35:00;2.83;;;2.63;;
14849;SDS011;7517;48.400;11.770;2023-11-18T10:37:33;2.10;;;2.00;;
14849;SDS011;7517;48.400;11.770;2023-11-18T10:40:08;1.70;;;1.60;;
14849;SDS011;7517;48.400;11.770;2023-11-18T10:42:38;1.50;;;1.40;;
14849;SDS011;7517;48.400;11.770;2023-11-18T10:45:11;1.37;;;1.30;;
14849;SDS011;7517;48.400;11.770;2023-11-18T10:47:52;1.30;;;1.20;;
14849;SDS011;7517;48.400;11.770;2023-11-18T10:50:22;1.63;;;1.40;;
14849;SDS011;7517;48.400;11.770;2023-11-18T10:52:57;1.17;;;1.10;;
14849;SDS011;7517;48.400;11.770;2023-11-18T10:55:36;1.20;;;1.10;;
14849;SDS011;7517;48.400;11.770;2023-11-18T10:58:07;1.97;;;1.83;;
14849;SDS011;7517;48.400;11.770;2023-11-18T11:00:46;1.23;;;1.23;;
14849;SDS011;7517;48.400;11.770;2023-11-18T11:03:18;1.40;;;1.30;;
14849;SDS011;7517;48.400;11.770;2023-11-18T11:05:48;1.10;;;1.10;;
14849;SDS011;7517;48.400;11.770;2023-11-18T11:08:26;1.97;;;1.40;;
14849;SDS011;7517;48.400;11.770;2023-11-18T11:10:56;1.70;;;1.53;;
14849;SDS011;7517;48.400;11.770;2023-11-18T11:13:33;1.60;;;1.50;;
14849;SDS011;7517;48.400;11.770;2023-11-18T11:16:04;1.60;;;1.50;;
14849;SDS011;7517;48.400;11.770;2023-11-18T11:18:42;1.10;;;1.10;;
14849;SDS011;7517;48.400;11.770;2023-11-18T11:21:19;1.00;;;1.00;;
14849;SDS011;7517;48.400;11.770;2023-11-18T11:23:59;1.57;;;1.40;;
14849;SDS011;7517;48.400;11.770;2023-11-18T11:26:39;1.00;;;1.00;;
14849;SDS011;7517;48.400;11.770;2023-11-18T11:29:25;1.50;;;1.20;;
14849;SDS011;7517;48.400;11.770;2023-11-18T11:32:11;1.13;;;1.07;;
14849;SDS011;7517;48.400;11.770;2023-11-18T11:34:53;1.20;;;1.10;;
14849;SDS011;7517;48.400;11.770;2023-11-18T11:37:32;1.50;;;1.40;;
14849;SDS011;7517;48.400;11.770;2023-11-18T11:40:01;1.47;;;1.37;;
14849;SDS011;7517;48.400;11.770;2023-11-18T11:42:35;1.43;;;1.37;;
14849;SDS011;7517;48.400;11.770;2023-11-18T11:45:06;1.77;;;1.03;;
14849;SDS011;7517;48.400;11.770;2023-11-18T11:47:46;0.90;;;0.90;;
14849;SDS011;7517;48.400;11.770;2023-11-18T11:50:18;2.97;;;1.90;;
14849;SDS011;7517;48.400;11.770;2023-11-18T11:52:59;2.37;;;1.33;;
14849;SDS011;7517;48.400;11.770;2023-11-18T11:55:46;1.20;;;1.10;;
14849;SDS011;7517;48.400;11.770;2023-11-18T11:58:30;1.33;;;1.20;;
14849;SDS011;7517;48.400;11.770;2023-11-18T12:01:02;1.00;;;0.90;;
14849;SDS011;7517;48.400;11.770;2023-11-18T12:06:58;0.70;;;0.53;;
14849;SDS011;7517;48.400;11.770;2023-11-18T12:09:41;0.60;;;0.60;;
14849;SDS011;7517;48.400;11.770;2023-11-18T12:12:23;0.50;;;0.50;;
14849;SDS011;7517;48.400;11.770;2023-11-18T12:15:04;0.90;;;0.80;;
14849;SDS011;7517;48.400;11.770;2023-11-18T12:18:11;0.50;;;0.50;;
14849;SDS011;7517;48.400;11.770;2023-11-18T12:20:54;0.50;;;0.50;;
14849;SDS011;7517;48.400;11.770;2023-11-18T12:23:27;0.57;;;0.57;;
14849;SDS011;7517;48.400;11.770;2023-11-18T12:25:56;0.70;;;0.70;;
14849;SDS011;7517;48.400;11.770;2023-11-18T12:28:40;0.80;;;0.80;;
14849;SDS011;7517;48.400;11.770;2023-11-18T12:31:19;0.87;;;0.80;;
14849;SDS011;7517;48.400;11.770;2023-11-18T12:37:40;0.80;;;0.80;;
14849;SDS011;7517;48.400;11.770;2023-11-18T12:40:54;1.23;;;0.50;;
14849;SDS011;7517;48.400;11.770;2023-11-18T12:43:32;0.87;;;0.80;;
14849;SDS011;7517;48.400;11.770;2023-11-18T12:46:47;0.50;;;0.50;;
14849;SDS011;7517;48.400;11.770;2023-11-18T12:49:36;0.40;;;0.40;;
14849;SDS011;7517;48.400;11.770;2023-11-18T12:52:17;0.77;;;0.60;;
14849;SDS011;7517;48.400;11.770;2023-11-18T12:54:55;0.87;;;0.80;;
14849;SDS011;7517;48.400;11.770;2023-11-18T12:57:26;0.90;;;0.80;;
14849;SDS011;7517;48.400;11.770;2023-11-18T13:00:03;1.23;;;1.03;;
14849;SDS011;7517;48.400;11.770;2023-11-18T13:02:51;1.43;;;0.90;;
14849;SDS011;7517;48.400;11.770;2023-11-18T13:05:29;1.37;;;0.83;;
14849;SDS011;7517;48.400;11.770;2023-11-18T13:08:08;1.50;;;1.40;;
14849;SDS011;7517;48.400;11.770;2023-11-18T13:10:50;1.57;;;0.80;;
14849;SDS011;7517;48.400;11.770;2023-11-18T13:13:20;2.80;;;1.10;;
14849;SDS011;7517;48.400;11.770;2023-11-18T13:15:55;0.83;;;0.83;;
14849;SDS011;7517;48.400;11.770;2023-11-18T13:18:45;0.70;;;0.70;;
14849;SDS011;7517;48.400;11.770;2023-11-18T13:21:21;0.53;;;0.53;;
14849;SDS011;7517;48.400;11.770;2023-11-18T13:23:54;0.63;;;0.63;;
14849;SDS011;7517;48.400;11.770;2023-11-18T13:26:31;0.70;;;0.70;;
14849;SDS011;7517;48.400;11.770;2023-11-18T13:29:15;0.80;;;0.80;;
14849;SDS011;7517;48.400;11.770;2023-11-18T13:31:47;1.50;;;0.70;;
14849;SDS011;7517;48.400;11.770;2023-11-18T13:34:38;0.70;;;0.70;;
14849;SDS011;7517;48.400;11.770;2023-11-18T13:37:20;0.70;;;0.70;;
14849;SDS011;7517;48.400;11.770;2023-11-18T13:39:54;0.80;;;0.80;;
14849;SDS011;7517;48.400;11.770;2023-11-18T13:42:26;0.97;;;0.93;;
14849;SDS011;7517;48.400;11.770;2023-11-18T13:45:09;1.50;;;1.40;;
14849;SDS011;7517;48.400;11.770;2023-11-18T13:47:49;1.53;;;1.43;;
14849;SDS011;7517;48.400;11.770;2023-11-18T13:50:34;1.00;;;1.00;;
14849;SDS011;7517;48.400;11.770;2023-11-18T13:53:09;1.57;;;1.50;;
14849;SDS011;7517;48.400;11.770;2023-11-18T13:55:46;3.50;;;3.30;;
14849;SDS011;7517;48.400;11.770;2023-11-18T13:58:33;2.30;;;1.13;;
14849;SDS011;7517;48.400;11.770;2023-11-18T14:01:13;1.17;;;1.00;;
14849;SDS011;7517;48.400;11.770;2023-11-18T14:03:52;0.70;;;0.70;;
14849;SDS011;7517;48.400;11.770;2023-11-18T14:06:45;1.00;;;0.90;;
14849;SDS011;7517;48.400;11.770;2023-11-18T14:09:46;3.40;;;1.10;;
14849;SDS011;7517;48.400;11.770;2023-11-18T14:12:35;0.90;;;0.90;;
14849;SDS011;7517;48.400;11.770;2023-11-18T14:16:02;12.87;;;1.83;;
14849;SDS011;7517;48.400;11.770;2023-11-18T14:18:46;0.77;;;0.73;;
14849;SDS011;7517;48.400;11.770;2023-11-18T14:21:20;4.00;;;0.90;;
14849;SDS011;7517;48.400;11.770;2023-11-18T14:23:57;0.63;;;0.60;;
14849;SDS011;7517;48.400;11.770;2023-11-18T14:26:39;1.50;;;0.87;;
14849;SDS011;7517;48.400;11.770;2023-11-18T14:29:06;0.80;;;0.80;;
14849;SDS011;7517;48.400;11.770;2023-11-18T14:31:42;0.80;;;0.80;;
14849;SDS011;7517;48.400;11.770;2023-11-18T14:34:11;1.23;;;1.13;;
14849;SDS011;7517;48.400;11.770;2023-11-18T14:36:44;0.70;;;0.70;;
14849;SDS011;7517;48.400;11.770;2023-11-18T14:39:38;0.90;;;0.90;;
14849;SDS011;7517;48.400;11.770;2023-11-18T14:42:27;0.90;;;0.70;;
14849;SDS011;7517;48.400;11.770;2023-11-18T14:45:19;1.13;;;1.03;;
14849;SDS011;7517;48.400;11.770;2023-11-18T14:48:07;1.40;;;1.30;;
14849;SDS011;7517;48.400;11.770;2023-11-18T14:50:53;1.07;;;1.07;;
14849;SDS011;7517;48.400;11.770;2023-11-18T14:53:37;1.00;;;0.90;;
14849;SDS011;7517;48.400;11.770;2023-11-18T14:56:26;1.00;;;0.90;;
14849;SDS011;7517;48.400;11.770;2023-11-18T14:59:16;0.70;;;0.70;;
14849;SDS011;7517;48.400;11.770;2023-11-18T15:01:58;1.50;;;0.87;;
14849;SDS011;7517;48.400;11.770;2023-11-18T15:04:29;1.30;;;1.20;;
14849;SDS011;7517;48.400;11.770;2023-11-18T15:07:07;1.70;;;1.23;;
14849;SDS011;7517;48.400;11.770;2023-11-18T15:09:59;2.57;;;1.63;;
14849;SDS011;7517;48.400;11.770;2023-11-18T15:12:46;2.23;;;1.90;;
14849;SDS011;7517;48.400;11.770;2023-11-18T15:15:18;2.13;;;1.73;;
14849;SDS011;7517;48.400;11.770;2023-11-18T15:17:47;2.30;;;2.10;;
14849;SDS011;7517;48.400;11.770;2023-11-18T15:20:40;2.50;;;1.80;;
14849;SDS011;7517;48.400;11.770;2023-11-18T15:23:34;2.10;;;1.83;;
14849;SDS011;7517;48.400;11.770;2023-11-18T15:26:08;1.80;;;1.70;;
14849;SDS011;7517;48.400;11.770;2023-11-18T15:28:42;2.00;;;1.87;;
14849;SDS011;7517;48.400;11.770;2023-11-18T15:31:13;1.67;;;1.57;;
14849;SDS011;7517;48.400;11.770;2023-11-18T15:33:45;1.90;;;1.80;;
14849;SDS011;7517;48.400;11.770;2023-11-18T15:36:17;1.70;;;1.60;;
14849;SDS011;7517;48.400;11.770;2023-11-18T15:38:57;5.47;;;4.80;;